SHT21B EGJB-EGLL
Flight info
| Callsign | SHT21B |
|---|---|
| Flight time | 0h 30m |
| Altitude | 19000 |
| Route | ORIST1F ORIST L982 ROXOG ROXOG1H |
| Aircraft | A320/M-SDE3FGIJ1KRWXY/SB1 |
Departure
| Time | 2026-04-23 21:53 |
|---|---|
| Airport | Guernsey Airport (EGJB) |
Arrival
| Time | 2026-04-23 22:24 |
|---|---|
| Airport | London Heathrow Airport (EGLL) |
| Time | Latitude | Longitude | Altitude | Speed | Heading |
|---|---|---|---|---|---|
| 2026-04-23 21:37 | 49.43256 | -2.59621 | 328 ft | 0 kts | 178° |
| 2026-04-23 21:46 | 49.43277 | -2.59622 | 324 ft | 4 kts | 178° |
| 2026-04-23 21:46 | 49.43304 | -2.59623 | 329 ft | 4 kts | 182° |
| 2026-04-23 21:46 | 49.43331 | -2.59619 | 326 ft | 4 kts | 192° |
| 2026-04-23 21:47 | 49.43355 | -2.59606 | 326 ft | 4 kts | 225° |
| 2026-04-23 21:47 | 49.43363 | -2.59588 | 326 ft | 0 kts | 267° |
| 2026-04-23 21:49 | 49.43362 | -2.59618 | 327 ft | 6 kts | 267° |
| 2026-04-23 21:49 | 49.43358 | -2.59710 | 328 ft | 11 kts | 262° |
| 2026-04-23 21:49 | 49.43345 | -2.59857 | 322 ft | 18 kts | 267° |
| 2026-04-23 21:50 | 49.43339 | -2.60080 | 308 ft | 25 kts | 268° |
| 2026-04-23 21:50 | 49.43329 | -2.60347 | 294 ft | 27 kts | 269° |
| 2026-04-23 21:50 | 49.43328 | -2.60606 | 294 ft | 21 kts | 274° |
| 2026-04-23 21:50 | 49.43351 | -2.60819 | 302 ft | 19 kts | 280° |
| 2026-04-23 21:51 | 49.43363 | -2.60998 | 311 ft | 15 kts | 266° |
| 2026-04-23 21:51 | 49.43359 | -2.61170 | 312 ft | 14 kts | 268° |
| 2026-04-23 21:51 | 49.43365 | -2.61255 | 313 ft | 7 kts | 295° |
| 2026-04-23 21:51 | 49.43395 | -2.61314 | 315 ft | 7 kts | 310° |
| 2026-04-23 21:52 | 49.43437 | -2.61358 | 316 ft | 8 kts | 342° |
| 2026-04-23 21:52 | 49.43466 | -2.61295 | 315 ft | 3 kts | 88° |
| 2026-04-23 21:52 | 49.43466 | -2.61294 | 315 ft | 0 kts | 88° |
| 2026-04-23 21:52 | 49.43480 | -2.60844 | 310 ft | 86 kts | 88° |
| 2026-04-23 21:53 | 49.43524 | -2.59584 | 432 ft | 139 kts | 85° |
| 2026-04-23 21:53 | 49.43561 | -2.58087 | 1213 ft | 142 kts | 88° |
| 2026-04-23 21:53 | 49.43581 | -2.56575 | 2070 ft | 139 kts | 93° |
| 2026-04-23 21:53 | 49.43611 | -2.55071 | 2596 ft | 149 kts | 93° |
| 2026-04-23 21:54 | 49.43654 | -2.53351 | 2930 ft | 173 kts | 92° |
| 2026-04-23 21:54 | 49.43709 | -2.51381 | 3400 ft | 193 kts | 90° |
| 2026-04-23 21:54 | 49.44176 | -2.49391 | 3922 ft | 216 kts | 53° |
| 2026-04-23 21:54 | 49.45531 | -2.48200 | 4773 ft | 229 kts | 22° |
| 2026-04-23 21:55 | 49.47072 | -2.47550 | 5754 ft | 230 kts | 18° |
| 2026-04-23 21:55 | 49.48656 | -2.46999 | 6558 ft | 241 kts | 18° |
| 2026-04-23 21:55 | 49.49776 | -2.46615 | 6861 ft | 257 kts | 17° |
| 2026-04-23 21:55 | 49.51594 | -2.45983 | 7415 ft | 275 kts | 17° |
| 2026-04-23 21:56 | 49.53484 | -2.45311 | 8247 ft | 282 kts | 17° |
| 2026-04-23 21:56 | 49.56045 | -2.44377 | 9415 ft | 289 kts | 18° |
| 2026-04-23 21:56 | 49.57376 | -2.43882 | 10013 ft | 293 kts | 17° |
| 2026-04-23 21:56 | 49.59372 | -2.43130 | 10833 ft | 297 kts | 18° |
| 2026-04-23 21:57 | 49.61394 | -2.42362 | 11644 ft | 302 kts | 17° |
| 2026-04-23 21:57 | 49.63443 | -2.41580 | 12486 ft | 305 kts | 18° |
| 2026-04-23 21:57 | 49.65514 | -2.40787 | 13316 ft | 308 kts | 18° |
| 2026-04-23 21:57 | 49.67605 | -2.39985 | 14116 ft | 311 kts | 18° |
| 2026-04-23 21:58 | 49.69612 | -2.38776 | 14816 ft | 310 kts | 32° |
| 2026-04-23 21:58 | 49.71389 | -2.36846 | 15247 ft | 321 kts | 46° |
| 2026-04-23 21:58 | 49.72906 | -2.34243 | 15405 ft | 340 kts | 53° |
| 2026-04-23 21:58 | 49.74472 | -2.31355 | 15858 ft | 350 kts | 52° |
| 2026-04-23 21:59 | 49.76027 | -2.28497 | 16509 ft | 353 kts | 52° |
| 2026-04-23 21:59 | 49.77625 | -2.25573 | 17139 ft | 358 kts | 52° |
| 2026-04-23 21:59 | 49.79243 | -2.22619 | 17801 ft | 361 kts | 52° |
| 2026-04-23 22:00 | 49.82537 | -2.16606 | 19000 ft | 370 kts | 51° |
| 2026-04-23 22:00 | 49.84206 | -2.13564 | 19231 ft | 371 kts | 50° |
| 2026-04-23 22:00 | 49.85892 | -2.10486 | 19296 ft | 380 kts | 51° |
| 2026-04-23 22:00 | 49.87610 | -2.07344 | 19306 ft | 384 kts | 51° |
| 2026-04-23 22:01 | 49.89340 | -2.04174 | 19306 ft | 386 kts | 51° |
| 2026-04-23 22:01 | 49.91073 | -2.00995 | 19304 ft | 386 kts | 50° |
| 2026-04-23 22:01 | 49.92805 | -1.97807 | 19310 ft | 387 kts | 51° |
| 2026-04-23 22:01 | 49.94535 | -1.94616 | 19309 ft | 386 kts | 51° |
| 2026-04-23 22:02 | 49.96260 | -1.91426 | 19310 ft | 386 kts | 51° |
| 2026-04-23 22:02 | 49.97977 | -1.88246 | 19313 ft | 383 kts | 51° |
| 2026-04-23 22:02 | 49.99844 | -1.85297 | 19312 ft | 385 kts | 41° |
| 2026-04-23 22:02 | 50.02046 | -1.82910 | 19319 ft | 387 kts | 31° |
| 2026-04-23 22:03 | 50.04447 | -1.80992 | 19318 ft | 388 kts | 30° |
| 2026-04-23 22:03 | 50.06857 | -1.79093 | 19310 ft | 389 kts | 30° |
| 2026-04-23 22:03 | 50.09273 | -1.77190 | 19305 ft | 389 kts | 28° |
| 2026-04-23 22:03 | 50.11704 | -1.75311 | 19305 ft | 390 kts | 29° |
| 2026-04-23 22:04 | 50.14142 | -1.73452 | 19308 ft | 390 kts | 28° |
| 2026-04-23 22:04 | 50.16586 | -1.71597 | 19308 ft | 391 kts | 29° |
| 2026-04-23 22:04 | 50.19033 | -1.69742 | 19302 ft | 391 kts | 28° |
| 2026-04-23 22:04 | 50.21479 | -1.67883 | 19302 ft | 391 kts | 30° |
| 2026-04-23 22:05 | 50.23921 | -1.66016 | 19305 ft | 393 kts | 29° |
| 2026-04-23 22:05 | 50.26431 | -1.64081 | 19330 ft | 413 kts | 29° |
| 2026-04-23 22:05 | 50.29058 | -1.62042 | 19330 ft | 428 kts | 30° |
| 2026-04-23 22:05 | 50.31742 | -1.59957 | 19335 ft | 433 kts | 29° |
| 2026-04-23 22:06 | 50.34446 | -1.57863 | 19332 ft | 434 kts | 29° |
| 2026-04-23 22:06 | 50.37160 | -1.55773 | 19330 ft | 435 kts | 29° |
| 2026-04-23 22:06 | 50.39875 | -1.53685 | 19333 ft | 435 kts | 29° |
| 2026-04-23 22:06 | 50.42587 | -1.51593 | 19335 ft | 435 kts | 28° |
| 2026-04-23 22:07 | 50.45306 | -1.49487 | 19338 ft | 436 kts | 29° |
| 2026-04-23 22:07 | 50.48025 | -1.47369 | 19338 ft | 436 kts | 29° |
| 2026-04-23 22:07 | 50.50742 | -1.45253 | 19339 ft | 436 kts | 29° |
| 2026-04-23 22:07 | 50.53465 | -1.43139 | 19337 ft | 436 kts | 29° |
| 2026-04-23 22:08 | 50.56164 | -1.40981 | 19332 ft | 435 kts | 30° |
| 2026-04-23 22:08 | 50.58831 | -1.38734 | 19320 ft | 435 kts | 31° |
| 2026-04-23 22:08 | 50.61479 | -1.36429 | 19315 ft | 435 kts | 32° |
| 2026-04-23 22:08 | 50.64119 | -1.34098 | 19305 ft | 436 kts | 32° |
| 2026-04-23 22:09 | 50.66757 | -1.31772 | 19320 ft | 430 kts | 32° |
| 2026-04-23 22:09 | 50.69298 | -1.29556 | 19344 ft | 406 kts | 32° |
| 2026-04-23 22:09 | 50.71733 | -1.27449 | 19111 ft | 393 kts | 32° |
| 2026-04-23 22:09 | 50.74096 | -1.25415 | 18869 ft | 380 kts | 32° |
| 2026-04-23 22:10 | 50.76379 | -1.23440 | 18650 ft | 368 kts | 33° |
| 2026-04-23 22:10 | 50.78559 | -1.21395 | 18374 ft | 361 kts | 35° |
| 2026-04-23 22:10 | 50.80666 | -1.19260 | 18102 ft | 358 kts | 36° |
| 2026-04-23 22:10 | 50.82724 | -1.17094 | 17738 ft | 352 kts | 37° |
| 2026-04-23 22:11 | 50.84742 | -1.14941 | 17261 ft | 348 kts | 37° |
| 2026-04-23 22:11 | 50.86746 | -1.12807 | 16769 ft | 345 kts | 37° |
| 2026-04-23 22:11 | 50.88736 | -1.10707 | 16284 ft | 343 kts | 37° |
| 2026-04-23 22:11 | 50.90720 | -1.08631 | 15799 ft | 341 kts | 36° |
| 2026-04-23 22:12 | 50.92692 | -1.06582 | 15316 ft | 338 kts | 36° |
| 2026-04-23 22:12 | 50.94659 | -1.04545 | 14827 ft | 337 kts | 36° |
| 2026-04-23 22:12 | 50.96619 | -1.02516 | 14347 ft | 335 kts | 36° |
| 2026-04-23 22:12 | 50.98583 | -1.00525 | 13710 ft | 338 kts | 31° |
| 2026-04-23 22:13 | 51.00807 | -0.99134 | 12769 ft | 347 kts | 21° |
| 2026-04-23 22:13 | 51.03085 | -0.97959 | 11841 ft | 341 kts | 21° |
| 2026-04-23 22:13 | 51.05327 | -0.96830 | 11041 ft | 336 kts | 21° |
| 2026-04-23 22:13 | 51.07542 | -0.95721 | 10693 ft | 329 kts | 21° |
| 2026-04-23 22:14 | 51.09677 | -0.94651 | 10567 ft | 316 kts | 21° |
| 2026-04-23 22:14 | 51.11731 | -0.93617 | 10445 ft | 304 kts | 21° |
| 2026-04-23 22:14 | 51.13710 | -0.92616 | 10323 ft | 293 kts | 21° |
| 2026-04-23 22:14 | 51.15629 | -0.91638 | 10056 ft | 286 kts | 21° |
| 2026-04-23 22:15 | 51.17511 | -0.90673 | 9397 ft | 283 kts | 21° |
| 2026-04-23 22:15 | 51.19382 | -0.89710 | 8756 ft | 281 kts | 21° |
| 2026-04-23 22:15 | 51.21234 | -0.88761 | 8124 ft | 278 kts | 21° |
| 2026-04-23 22:15 | 51.23058 | -0.87828 | 7584 ft | 273 kts | 21° |
| 2026-04-23 22:16 | 51.24861 | -0.86904 | 7080 ft | 272 kts | 21° |
| 2026-04-23 22:16 | 51.26679 | -0.85968 | 6650 ft | 275 kts | 21° |
| 2026-04-23 22:16 | 51.28475 | -0.85044 | 6156 ft | 270 kts | 21° |
| 2026-04-23 22:16 | 51.30264 | -0.84123 | 5489 ft | 269 kts | 21° |
| 2026-04-23 22:17 | 51.32041 | -0.83208 | 4859 ft | 269 kts | 22° |
| 2026-04-23 22:17 | 51.33818 | -0.82295 | 4252 ft | 266 kts | 21° |
| 2026-04-23 22:17 | 51.35567 | -0.81394 | 3712 ft | 261 kts | 22° |
| 2026-04-23 22:17 | 51.37226 | -0.80547 | 3637 ft | 240 kts | 22° |
| 2026-04-23 22:18 | 51.38775 | -0.79758 | 3562 ft | 230 kts | 22° |
| 2026-04-23 22:18 | 51.40294 | -0.78968 | 3472 ft | 229 kts | 23° |
| 2026-04-23 22:18 | 51.41811 | -0.78178 | 3371 ft | 227 kts | 23° |
| 2026-04-23 22:18 | 51.43309 | -0.77395 | 3276 ft | 226 kts | 23° |
| 2026-04-23 22:19 | 51.44803 | -0.76605 | 3179 ft | 226 kts | 26° |
| 2026-04-23 22:19 | 51.46121 | -0.75367 | 3080 ft | 213 kts | 45° |
| 2026-04-23 22:19 | 51.47035 | -0.73639 | 3002 ft | 194 kts | 64° |
| 2026-04-23 22:19 | 51.47523 | -0.71724 | 2915 ft | 181 kts | 79° |
| 2026-04-23 22:20 | 51.47641 | -0.69763 | 2747 ft | 173 kts | 90° |
| 2026-04-23 22:20 | 51.47652 | -0.67880 | 2529 ft | 166 kts | 90° |
| 2026-04-23 22:20 | 51.47663 | -0.66057 | 2300 ft | 160 kts | 90° |
| 2026-04-23 22:20 | 51.47672 | -0.64296 | 2087 ft | 154 kts | 90° |
| 2026-04-23 22:21 | 51.47681 | -0.62622 | 1887 ft | 147 kts | 90° |
| 2026-04-23 22:21 | 51.47690 | -0.61010 | 1682 ft | 143 kts | 89° |
| 2026-04-23 22:21 | 51.47698 | -0.59417 | 1491 ft | 142 kts | 89° |
| 2026-04-23 22:21 | 51.47705 | -0.57885 | 1303 ft | 132 kts | 89° |
| 2026-04-23 22:22 | 51.47712 | -0.56444 | 1120 ft | 127 kts | 88° |
| 2026-04-23 22:22 | 51.47719 | -0.55034 | 933 ft | 127 kts | 88° |
| 2026-04-23 22:22 | 51.47728 | -0.53631 | 774 ft | 125 kts | 88° |
| 2026-04-23 22:22 | 51.47734 | -0.52239 | 559 ft | 124 kts | 88° |
| 2026-04-23 22:23 | 51.47743 | -0.50849 | 400 ft | 126 kts | 88° |
| 2026-04-23 22:23 | 51.47746 | -0.49450 | 236 ft | 125 kts | 89° |
| 2026-04-23 22:23 | 51.47751 | -0.48072 | 101 ft | 123 kts | 88° |
| 2026-04-23 22:23 | 51.47758 | -0.46877 | 89 ft | 87 kts | 90° |
| 2026-04-23 22:24 | 51.47760 | -0.46229 | 87 ft | 18 kts | 92° |
| 2026-04-23 22:24 | 51.47669 | -0.46103 | 87 ft | 18 kts | 148° |
| 2026-04-23 22:24 | 51.47596 | -0.46146 | 86 ft | 15 kts | 262° |
| 2026-04-23 22:24 | 51.47595 | -0.46331 | 91 ft | 18 kts | 265° |
| 2026-04-23 22:25 | 51.47591 | -0.46559 | 86 ft | 22 kts | 269° |
| 2026-04-23 22:25 | 51.47589 | -0.46807 | 86 ft | 22 kts | 263° |
| 2026-04-23 22:25 | 51.47583 | -0.47069 | 89 ft | 25 kts | 272° |
| 2026-04-23 22:25 | 51.47581 | -0.47368 | 90 ft | 29 kts | 270° |
| 2026-04-23 22:26 | 51.47580 | -0.47659 | 87 ft | 23 kts | 270° |
| 2026-04-23 22:26 | 51.47580 | -0.47940 | 89 ft | 27 kts | 270° |
| 2026-04-23 22:26 | 51.47579 | -0.48234 | 88 ft | 26 kts | 269° |
| 2026-04-23 22:26 | 51.47570 | -0.48443 | 86 ft | 14 kts | 239° |
| 2026-04-23 22:27 | 51.47549 | -0.48470 | 86 ft | 3 kts | 213° |
| 2026-04-23 22:27 | 51.47517 | -0.48478 | 89 ft | 6 kts | 180° |
| 2026-04-23 22:27 | 51.47460 | -0.48476 | 86 ft | 10 kts | 179° |
| 2026-04-23 22:27 | 51.47404 | -0.48480 | 89 ft | 5 kts | 204° |
| 2026-04-23 22:28 | 51.47400 | -0.48544 | 89 ft | 8 kts | 270° |
| 2026-04-23 22:28 | 51.47400 | -0.48579 | 86 ft | 1 kts | 269° |
| 2026-04-23 22:28 | 51.47399 | -0.48587 | 86 ft | 0 kts | 269° |